sensor_id;sensor_type;location;lat;lon;timestamp;temperature;humidity
40516;DHT22;26216;53.724;9.898;2022-11-23T00:00:44;4.30;99.90
40516;DHT22;26216;53.724;9.898;2022-11-23T00:03:13;4.30;99.90
40516;DHT22;26216;53.724;9.898;2022-11-23T00:05:40;4.40;99.90
40516;DHT22;26216;53.724;9.898;2022-11-23T00:08:09;4.40;99.90
40516;DHT22;26216;53.724;9.898;2022-11-23T00:10:35;4.40;99.90
40516;DHT22;26216;53.724;9.898;2022-11-23T00:13:03;4.40;99.90
40516;DHT22;26216;53.724;9.898;2022-11-23T00:15:29;4.50;99.90
40516;DHT22;26216;53.724;9.898;2022-11-23T00:18:03;4.50;99.90
40516;DHT22;26216;53.724;9.898;2022-11-23T00:20:32;4.50;99.90
40516;DHT22;26216;53.724;9.898;2022-11-23T00:23:00;4.50;99.90
40516;DHT22;26216;53.724;9.898;2022-11-23T00:25:26;4.50;99.90
40516;DHT22;26216;53.724;9.898;2022-11-23T00:27:52;4.50;99.90
40516;DHT22;26216;53.724;9.898;2022-11-23T00:30:18;4.60;99.90
40516;DHT22;26216;53.724;9.898;2022-11-23T00:32:46;4.60;99.90
40516;DHT22;26216;53.724;9.898;2022-11-23T00:35:12;4.60;99.90
40516;DHT22;26216;53.724;9.898;2022-11-23T00:37:38;4.60;99.90
40516;DHT22;26216;53.724;9.898;2022-11-23T00:40:04;4.60;99.90
40516;DHT22;26216;53.724;9.898;2022-11-23T00:42:30;4.60;99.90
40516;DHT22;26216;53.724;9.898;2022-11-23T00:44:59;4.60;99.90
40516;DHT22;26216;53.724;9.898;2022-11-23T00:47:34;4.70;99.90
40516;DHT22;26216;53.724;9.898;2022-11-23T00:50:03;4.70;99.90
40516;DHT22;26216;53.724;9.898;2022-11-23T00:52:32;4.70;99.90
40516;DHT22;26216;53.724;9.898;2022-11-23T00:54:57;4.70;99.90
40516;DHT22;26216;53.724;9.898;2022-11-23T00:57:23;4.70;99.90
40516;DHT22;26216;53.724;9.898;2022-11-23T00:59:49;4.70;99.90
40516;DHT22;26216;53.724;9.898;2022-11-23T01:02:15;4.70;99.90
40516;DHT22;26216;53.724;9.898;2022-11-23T01:04:41;4.70;99.90
40516;DHT22;26216;53.724;9.898;2022-11-23T01:07:07;4.80;99.90
40516;DHT22;26216;53.724;9.898;2022-11-23T01:09:32;4.80;99.90
40516;DHT22;26216;53.724;9.898;2022-11-23T01:12:01;4.80;99.90
40516;DHT22;26216;53.724;9.898;2022-11-23T01:14:27;4.80;99.90
40516;DHT22;26216;53.724;9.898;2022-11-23T01:16:53;4.80;99.90
40516;DHT22;26216;53.724;9.898;2022-11-23T01:19:19;4.80;99.90
40516;DHT22;26216;53.724;9.898;2022-11-23T01:21:45;4.90;99.90
40516;DHT22;26216;53.724;9.898;2022-11-23T01:24:15;4.80;99.90
40516;DHT22;26216;53.724;9.898;2022-11-23T01:26:41;4.90;99.90
40516;DHT22;26216;53.724;9.898;2022-11-23T01:29:09;4.90;99.90
40516;DHT22;26216;53.724;9.898;2022-11-23T01:31:38;4.90;99.90
40516;DHT22;26216;53.724;9.898;2022-11-23T01:34:06;4.90;99.90
40516;DHT22;26216;53.724;9.898;2022-11-23T01:36:52;4.90;99.90
40516;DHT22;26216;53.724;9.898;2022-11-23T01:39:23;5.00;99.90
40516;DHT22;26216;53.724;9.898;2022-11-23T01:41:52;5.00;99.90
40516;DHT22;26216;53.724;9.898;2022-11-23T01:44:26;5.00;99.90
40516;DHT22;26216;53.724;9.898;2022-11-23T01:46:53;5.00;99.90
40516;DHT22;26216;53.724;9.898;2022-11-23T01:49:23;5.00;99.90
40516;DHT22;26216;53.724;9.898;2022-11-23T01:51:51;5.00;99.90
40516;DHT22;26216;53.724;9.898;2022-11-23T01:54:29;5.00;99.90
40516;DHT22;26216;53.724;9.898;2022-11-23T01:57:00;5.00;99.90
40516;DHT22;26216;53.724;9.898;2022-11-23T01:59:29;5.10;99.90
40516;DHT22;26216;53.724;9.898;2022-11-23T02:01:55;5.00;99.90
40516;DHT22;26216;53.724;9.898;2022-11-23T02:04:23;5.00;99.90
40516;DHT22;26216;53.724;9.898;2022-11-23T02:06:51;5.10;99.90
40516;DHT22;26216;53.724;9.898;2022-11-23T02:09:17;5.10;99.90
40516;DHT22;26216;53.724;9.898;2022-11-23T02:11:44;5.10;99.90
40516;DHT22;26216;53.724;9.898;2022-11-23T02:14:10;5.10;99.90
40516;DHT22;26216;53.724;9.898;2022-11-23T02:16:37;5.10;99.90
40516;DHT22;26216;53.724;9.898;2022-11-23T02:19:26;5.10;99.90
40516;DHT22;26216;53.724;9.898;2022-11-23T02:21:55;5.20;99.90
40516;DHT22;26216;53.724;9.898;2022-11-23T02:24:34;5.20;99.90
40516;DHT22;26216;53.724;9.898;2022-11-23T02:27:05;5.20;99.90
40516;DHT22;26216;53.724;9.898;2022-11-23T02:29:32;5.20;99.90
40516;DHT22;26216;53.724;9.898;2022-11-23T02:31:59;5.20;99.90
40516;DHT22;26216;53.724;9.898;2022-11-23T02:34:25;5.20;99.90
40516;DHT22;26216;53.724;9.898;2022-11-23T02:36:52;5.20;99.90
40516;DHT22;26216;53.724;9.898;2022-11-23T02:39:35;5.20;99.90
40516;DHT22;26216;53.724;9.898;2022-11-23T02:42:08;5.30;99.90
40516;DHT22;26216;53.724;9.898;2022-11-23T02:47:19;5.30;99.90
40516;DHT22;26216;53.724;9.898;2022-11-23T02:49:46;5.30;99.90
40516;DHT22;26216;53.724;9.898;2022-11-23T02:52:16;5.30;99.90
40516;DHT22;26216;53.724;9.898;2022-11-23T02:54:45;5.40;99.90
40516;DHT22;26216;53.724;9.898;2022-11-23T02:57:14;5.40;99.90
40516;DHT22;26216;53.724;9.898;2022-11-23T02:59:43;5.40;99.90
40516;DHT22;26216;53.724;9.898;2022-11-23T03:02:09;5.40;99.90
40516;DHT22;26216;53.724;9.898;2022-11-23T03:04:35;5.40;99.90
40516;DHT22;26216;53.724;9.898;2022-11-23T03:07:01;5.40;99.90
40516;DHT22;26216;53.724;9.898;2022-11-23T03:09:29;5.40;99.90
40516;DHT22;26216;53.724;9.898;2022-11-23T03:11:56;5.40;99.90
40516;DHT22;26216;53.724;9.898;2022-11-23T03:14:22;5.40;99.90
40516;DHT22;26216;53.724;9.898;2022-11-23T03:16:49;5.40;99.90
40516;DHT22;26216;53.724;9.898;2022-11-23T03:19:14;5.40;99.90
40516;DHT22;26216;53.724;9.898;2022-11-23T03:21:40;5.40;99.90
40516;DHT22;26216;53.724;9.898;2022-11-23T03:24:06;5.40;99.90
40516;DHT22;26216;53.724;9.898;2022-11-23T03:26:35;5.40;99.90
40516;DHT22;26216;53.724;9.898;2022-11-23T03:29:01;5.50;99.90
40516;DHT22;26216;53.724;9.898;2022-11-23T03:31:32;5.50;99.90
40516;DHT22;26216;53.724;9.898;2022-11-23T03:33:58;5.50;99.90
40516;DHT22;26216;53.724;9.898;2022-11-23T03:36:24;5.50;99.90
40516;DHT22;26216;53.724;9.898;2022-11-23T03:38:49;5.50;99.90
40516;DHT22;26216;53.724;9.898;2022-11-23T03:41:15;5.60;99.90
40516;DHT22;26216;53.724;9.898;2022-11-23T03:43:41;5.50;99.90
40516;DHT22;26216;53.724;9.898;2022-11-23T03:46:07;5.50;99.90
40516;DHT22;26216;53.724;9.898;2022-11-23T03:48:33;5.50;99.90
40516;DHT22;26216;53.724;9.898;2022-11-23T03:51:00;5.50;99.90
40516;DHT22;26216;53.724;9.898;2022-11-23T03:53:26;5.60;99.90
40516;DHT22;26216;53.724;9.898;2022-11-23T03:55:52;5.60;99.90
40516;DHT22;26216;53.724;9.898;2022-11-23T03:58:25;5.60;99.90
40516;DHT22;26216;53.724;9.898;2022-11-23T04:00:51;5.60;99.90
40516;DHT22;26216;53.724;9.898;2022-11-23T04:03:16;5.60;99.90
40516;DHT22;26216;53.724;9.898;2022-11-23T04:05:42;5.60;99.90
40516;DHT22;26216;53.724;9.898;2022-11-23T04:08:10;5.60;99.90
40516;DHT22;26216;53.724;9.898;2022-11-23T04:10:36;5.60;99.90
40516;DHT22;26216;53.724;9.898;2022-11-23T04:13:05;5.60;99.90
40516;DHT22;26216;53.724;9.898;2022-11-23T04:15:31;5.60;99.90
40516;DHT22;26216;53.724;9.898;2022-11-23T04:17:57;5.60;99.90
40516;DHT22;26216;53.724;9.898;2022-11-23T04:20:23;5.60;99.90
40516;DHT22;26216;53.724;9.898;2022-11-23T04:22:49;5.60;99.90
40516;DHT22;26216;53.724;9.898;2022-11-23T04:25:15;5.60;99.90
40516;DHT22;26216;53.724;9.898;2022-11-23T04:27:40;5.60;99.90
40516;DHT22;26216;53.724;9.898;2022-11-23T04:30:07;5.60;99.90
40516;DHT22;26216;53.724;9.898;2022-11-23T04:32:56;5.70;99.90
40516;DHT22;26216;53.724;9.898;2022-11-23T04:35:22;5.70;99.90
40516;DHT22;26216;53.724;9.898;2022-11-23T04:37:48;5.70;99.90
40516;DHT22;26216;53.724;9.898;2022-11-23T04:40:14;5.70;99.90
40516;DHT22;26216;53.724;9.898;2022-11-23T04:42:40;5.70;99.90
40516;DHT22;26216;53.724;9.898;2022-11-23T04:45:09;5.70;99.90
40516;DHT22;26216;53.724;9.898;2022-11-23T04:47:36;5.70;99.90
40516;DHT22;26216;53.724;9.898;2022-11-23T04:50:04;5.70;99.90
40516;DHT22;26216;53.724;9.898;2022-11-23T04:52:30;5.80;99.90
40516;DHT22;26216;53.724;9.898;2022-11-23T04:54:59;5.80;99.90
40516;DHT22;26216;53.724;9.898;2022-11-23T04:57:25;5.70;99.90
40516;DHT22;26216;53.724;9.898;2022-11-23T04:59:51;5.80;99.90
40516;DHT22;26216;53.724;9.898;2022-11-23T05:02:17;5.80;99.90
40516;DHT22;26216;53.724;9.898;2022-11-23T05:04:45;5.80;99.90
40516;DHT22;26216;53.724;9.898;2022-11-23T05:07:11;5.80;99.90
40516;DHT22;26216;53.724;9.898;2022-11-23T05:09:42;5.80;99.90
40516;DHT22;26216;53.724;9.898;2022-11-23T05:12:08;5.80;99.90
40516;DHT22;26216;53.724;9.898;2022-11-23T05:14:37;5.80;99.90
40516;DHT22;26216;53.724;9.898;2022-11-23T05:17:02;5.80;99.90
40516;DHT22;26216;53.724;9.898;2022-11-23T05:19:28;5.80;99.90
40516;DHT22;26216;53.724;9.898;2022-11-23T05:21:54;5.80;99.90
40516;DHT22;26216;53.724;9.898;2022-11-23T05:24:23;5.90;99.90
40516;DHT22;26216;53.724;9.898;2022-11-23T05:26:49;5.90;99.90
40516;DHT22;26216;53.724;9.898;2022-11-23T05:29:17;5.90;99.90
40516;DHT22;26216;53.724;9.898;2022-11-23T05:31:46;5.90;99.90
40516;DHT22;26216;53.724;9.898;2022-11-23T05:34:12;5.90;99.90
40516;DHT22;26216;53.724;9.898;2022-11-23T05:36:43;5.90;99.90
40516;DHT22;26216;53.724;9.898;2022-11-23T05:39:28;5.90;99.90
40516;DHT22;26216;53.724;9.898;2022-11-23T05:42:12;5.90;99.90
40516;DHT22;26216;53.724;9.898;2022-11-23T05:44:56;6.00;99.90
40516;DHT22;26216;53.724;9.898;2022-11-23T05:47:41;6.00;99.90
40516;DHT22;26216;53.724;9.898;2022-11-23T05:50:26;6.00;99.90
40516;DHT22;26216;53.724;9.898;2022-11-23T05:53:11;6.00;99.90
40516;DHT22;26216;53.724;9.898;2022-11-23T05:55:58;6.00;99.90
40516;DHT22;26216;53.724;9.898;2022-11-23T05:58:44;6.00;99.90
40516;DHT22;26216;53.724;9.898;2022-11-23T06:01:28;6.00;99.90
40516;DHT22;26216;53.724;9.898;2022-11-23T06:04:12;6.00;99.90
40516;DHT22;26216;53.724;9.898;2022-11-23T06:06:57;6.00;99.90
40516;DHT22;26216;53.724;9.898;2022-11-23T06:09:44;6.00;99.90
40516;DHT22;26216;53.724;9.898;2022-11-23T06:12:29;6.00;99.90
40516;DHT22;26216;53.724;9.898;2022-11-23T06:15:13;6.00;99.90
40516;DHT22;26216;53.724;9.898;2022-11-23T06:18:02;6.00;99.90
40516;DHT22;26216;53.724;9.898;2022-11-23T06:20:46;6.00;99.90
40516;DHT22;26216;53.724;9.898;2022-11-23T06:23:30;6.00;99.90
40516;DHT22;26216;53.724;9.898;2022-11-23T06:26:15;6.10;99.90
40516;DHT22;26216;53.724;9.898;2022-11-23T06:28:59;6.10;99.90
40516;DHT22;26216;53.724;9.898;2022-11-23T06:31:44;6.10;99.90
40516;DHT22;26216;53.724;9.898;2022-11-23T06:34:28;6.10;99.90
40516;DHT22;26216;53.724;9.898;2022-11-23T06:37:13;6.10;99.90
40516;DHT22;26216;53.724;9.898;2022-11-23T06:39:57;6.10;99.90
40516;DHT22;26216;53.724;9.898;2022-11-23T06:42:42;6.10;99.90
40516;DHT22;26216;53.724;9.898;2022-11-23T06:45:08;6.10;99.90
40516;DHT22;26216;53.724;9.898;2022-11-23T06:47:34;6.10;99.90
40516;DHT22;26216;53.724;9.898;2022-11-23T06:50:00;6.10;99.90
40516;DHT22;26216;53.724;9.898;2022-11-23T06:52:26;6.10;99.90
40516;DHT22;26216;53.724;9.898;2022-11-23T06:54:52;6.20;99.90
40516;DHT22;26216;53.724;9.898;2022-11-23T06:57:18;6.10;99.90
40516;DHT22;26216;53.724;9.898;2022-11-23T06:59:44;6.20;99.90
40516;DHT22;26216;53.724;9.898;2022-11-23T07:02:11;6.20;99.90
40516;DHT22;26216;53.724;9.898;2022-11-23T07:04:37;6.20;99.90
40516;DHT22;26216;53.724;9.898;2022-11-23T07:07:03;6.20;99.90
40516;DHT22;26216;53.724;9.898;2022-11-23T07:09:28;6.20;99.90
40516;DHT22;26216;53.724;9.898;2022-11-23T07:11:54;6.20;99.90
40516;DHT22;26216;53.724;9.898;2022-11-23T07:14:20;6.20;99.90
40516;DHT22;26216;53.724;9.898;2022-11-23T07:16:46;6.20;99.90
40516;DHT22;26216;53.724;9.898;2022-11-23T07:19:33;6.20;99.90
40516;DHT22;26216;53.724;9.898;2022-11-23T07:21:59;6.20;99.90
40516;DHT22;26216;53.724;9.898;2022-11-23T07:24:25;6.20;99.90
40516;DHT22;26216;53.724;9.898;2022-11-23T07:26:51;6.20;99.90
40516;DHT22;26216;53.724;9.898;2022-11-23T07:29:17;6.20;99.90
40516;DHT22;26216;53.724;9.898;2022-11-23T07:31:42;6.30;99.90
40516;DHT22;26216;53.724;9.898;2022-11-23T07:34:08;6.30;99.90
40516;DHT22;26216;53.724;9.898;2022-11-23T07:36:35;6.30;99.90
40516;DHT22;26216;53.724;9.898;2022-11-23T07:39:02;6.30;99.90
40516;DHT22;26216;53.724;9.898;2022-11-23T07:41:28;6.30;99.90
40516;DHT22;26216;53.724;9.898;2022-11-23T07:43:54;6.40;99.90
40516;DHT22;26216;53.724;9.898;2022-11-23T07:46:20;6.30;99.90
40516;DHT22;26216;53.724;9.898;2022-11-23T07:48:46;6.40;99.90
40516;DHT22;26216;53.724;9.898;2022-11-23T07:51:12;6.40;99.90
40516;DHT22;26216;53.724;9.898;2022-11-23T07:53:38;6.40;99.90
40516;DHT22;26216;53.724;9.898;2022-11-23T07:56:04;6.50;99.90
40516;DHT22;26216;53.724;9.898;2022-11-23T07:58:30;6.40;99.90
40516;DHT22;26216;53.724;9.898;2022-11-23T08:00:57;6.50;99.90
40516;DHT22;26216;53.724;9.898;2022-11-23T08:03:23;6.50;99.90
40516;DHT22;26216;53.724;9.898;2022-11-23T08:05:50;6.50;99.90
40516;DHT22;26216;53.724;9.898;2022-11-23T08:08:16;6.50;99.90
40516;DHT22;26216;53.724;9.898;2022-11-23T08:10:42;6.60;99.90
40516;DHT22;26216;53.724;9.898;2022-11-23T08:13:08;6.60;99.90
40516;DHT22;26216;53.724;9.898;2022-11-23T08:15:34;6.60;99.90
40516;DHT22;26216;53.724;9.898;2022-11-23T08:18:02;6.60;99.90
40516;DHT22;26216;53.724;9.898;2022-11-23T08:20:29;6.70;99.90
40516;DHT22;26216;53.724;9.898;2022-11-23T08:22:55;6.70;99.90
40516;DHT22;26216;53.724;9.898;2022-11-23T08:25:22;6.70;99.90
40516;DHT22;26216;53.724;9.898;2022-11-23T08:27:57;6.80;99.90
40516;DHT22;26216;53.724;9.898;2022-11-23T08:30:24;6.80;99.90
40516;DHT22;26216;53.724;9.898;2022-11-23T08:32:50;6.80;99.90
40516;DHT22;26216;53.724;9.898;2022-11-23T08:35:16;6.90;99.90
40516;DHT22;26216;53.724;9.898;2022-11-23T08:37:41;6.90;99.90
40516;DHT22;26216;53.724;9.898;2022-11-23T08:40:08;7.00;99.90
40516;DHT22;26216;53.724;9.898;2022-11-23T08:42:34;7.00;99.90
40516;DHT22;26216;53.724;9.898;2022-11-23T08:44:59;7.00;99.90
40516;DHT22;26216;53.724;9.898;2022-11-23T08:47:28;7.10;99.90
40516;DHT22;26216;53.724;9.898;2022-11-23T08:49:53;7.10;99.90
40516;DHT22;26216;53.724;9.898;2022-11-23T08:52:19;7.10;99.90
40516;DHT22;26216;53.724;9.898;2022-11-23T08:54:45;7.20;99.90
40516;DHT22;26216;53.724;9.898;2022-11-23T08:57:11;7.20;99.90
40516;DHT22;26216;53.724;9.898;2022-11-23T08:59:37;7.20;99.90
40516;DHT22;26216;53.724;9.898;2022-11-23T09:02:03;7.30;99.90
40516;DHT22;26216;53.724;9.898;2022-11-23T09:04:29;7.30;99.90
40516;DHT22;26216;53.724;9.898;2022-11-23T09:06:55;7.40;99.90
40516;DHT22;26216;53.724;9.898;2022-11-23T09:09:21;7.40;99.90
40516;DHT22;26216;53.724;9.898;2022-11-23T09:11:47;7.40;99.90
40516;DHT22;26216;53.724;9.898;2022-11-23T09:14:14;7.50;99.90
40516;DHT22;26216;53.724;9.898;2022-11-23T09:16:40;7.50;99.90
40516;DHT22;26216;53.724;9.898;2022-11-23T09:19:06;7.50;99.90
40516;DHT22;26216;53.724;9.898;2022-11-23T09:21:32;7.60;99.90
40516;DHT22;26216;53.724;9.898;2022-11-23T09:24:00;7.60;99.90
40516;DHT22;26216;53.724;9.898;2022-11-23T09:26:26;7.70;99.90
40516;DHT22;26216;53.724;9.898;2022-11-23T09:28:52;7.70;99.90
40516;DHT22;26216;53.724;9.898;2022-11-23T09:31:18;7.70;99.90
40516;DHT22;26216;53.724;9.898;2022-11-23T09:33:44;7.80;99.90
40516;DHT22;26216;53.724;9.898;2022-11-23T09:36:10;7.80;99.90
40516;DHT22;26216;53.724;9.898;2022-11-23T09:38:36;7.90;99.90
40516;DHT22;26216;53.724;9.898;2022-11-23T09:52:45;8.10;99.90
40516;DHT22;26216;53.724;9.898;2022-11-23T09:55:38;8.10;99.90
40516;DHT22;26216;53.724;9.898;2022-11-23T09:58:05;8.20;99.90
40516;DHT22;26216;53.724;9.898;2022-11-23T10:00:37;8.20;99.90
40516;DHT22;26216;53.724;9.898;2022-11-23T10:03:08;8.30;99.90
40516;DHT22;26216;53.724;9.898;2022-11-23T10:05:37;8.30;99.90
40516;DHT22;26216;53.724;9.898;2022-11-23T10:08:25;8.40;99.90
40516;DHT22;26216;53.724;9.898;2022-11-23T10:11:32;8.40;99.90
40516;DHT22;26216;53.724;9.898;2022-11-23T10:17:06;8.50;99.90
40516;DHT22;26216;53.724;9.898;2022-11-23T10:22:37;8.70;99.90
40516;DHT22;26216;53.724;9.898;2022-11-23T10:25:17;8.80;99.90
40516;DHT22;26216;53.724;9.898;2022-11-23T10:27:47;8.90;99.90
40516;DHT22;26216;53.724;9.898;2022-11-23T10:30:15;8.90;99.90
40516;DHT22;26216;53.724;9.898;2022-11-23T10:33:04;9.00;99.90
40516;DHT22;26216;53.724;9.898;2022-11-23T10:35:35;9.10;99.90
40516;DHT22;26216;53.724;9.898;2022-11-23T10:38:16;9.10;99.90
40516;DHT22;26216;53.724;9.898;2022-11-23T10:43:25;9.20;99.90
40516;DHT22;26216;53.724;9.898;2022-11-23T10:46:36;9.20;99.90
40516;DHT22;26216;53.724;9.898;2022-11-23T10:57:33;9.30;99.90
40516;DHT22;26216;53.724;9.898;2022-11-23T11:02:47;9.40;99.90
40516;DHT22;26216;53.724;9.898;2022-11-23T11:05:38;9.40;99.90
40516;DHT22;26216;53.724;9.898;2022-11-23T11:08:16;9.40;99.90
40516;DHT22;26216;53.724;9.898;2022-11-23T11:10:49;9.40;99.90
40516;DHT22;26216;53.724;9.898;2022-11-23T11:13:23;9.50;99.90
40516;DHT22;26216;53.724;9.898;2022-11-23T11:15:52;9.50;99.90
40516;DHT22;26216;53.724;9.898;2022-11-23T11:18:18;9.50;99.90
40516;DHT22;26216;53.724;9.898;2022-11-23T11:20:46;9.50;99.90
40516;DHT22;26216;53.724;9.898;2022-11-23T11:23:19;9.60;99.90
40516;DHT22;26216;53.724;9.898;2022-11-23T11:25:46;9.60;99.90
40516;DHT22;26216;53.724;9.898;2022-11-23T11:28:24;9.60;99.90
40516;DHT22;26216;53.724;9.898;2022-11-23T11:34:00;9.70;99.90
40516;DHT22;26216;53.724;9.898;2022-11-23T11:36:33;9.70;99.90
40516;DHT22;26216;53.724;9.898;2022-11-23T11:39:08;9.70;99.90
40516;DHT22;26216;53.724;9.898;2022-11-23T11:41:36;9.80;99.90
40516;DHT22;26216;53.724;9.898;2022-11-23T11:44:12;9.80;99.90
40516;DHT22;26216;53.724;9.898;2022-11-23T11:46:48;9.80;99.90
40516;DHT22;26216;53.724;9.898;2022-11-23T11:49:34;9.80;99.90
40516;DHT22;26216;53.724;9.898;2022-11-23T11:52:06;9.80;99.90
40516;DHT22;26216;53.724;9.898;2022-11-23T11:54:48;9.90;99.90
40516;DHT22;26216;53.724;9.898;2022-11-23T11:57:36;9.90;99.90
40516;DHT22;26216;53.724;9.898;2022-11-23T12:00:12;9.90;99.90
40516;DHT22;26216;53.724;9.898;2022-11-23T12:05:49;10.00;99.90
40516;DHT22;26216;53.724;9.898;2022-11-23T12:13:23;10.00;99.90
40516;DHT22;26216;53.724;9.898;2022-11-23T12:24:46;10.20;99.90
40516;DHT22;26216;53.724;9.898;2022-11-23T12:30:28;10.20;99.90
40516;DHT22;26216;53.724;9.898;2022-11-23T12:33:18;10.20;99.90
40516;DHT22;26216;53.724;9.898;2022-11-23T12:39:06;10.20;99.90
40516;DHT22;26216;53.724;9.898;2022-11-23T12:55:31;10.30;99.90
40516;DHT22;26216;53.724;9.898;2022-11-23T13:00:54;10.30;99.90
40516;DHT22;26216;53.724;9.898;2022-11-23T13:06:01;10.30;99.90
40516;DHT22;26216;53.724;9.898;2022-11-23T13:14:15;10.30;99.90
40516;DHT22;26216;53.724;9.898;2022-11-23T13:19:53;10.30;99.90
40516;DHT22;26216;53.724;9.898;2022-11-23T13:22:22;10.40;99.90
40516;DHT22;26216;53.724;9.898;2022-11-23T13:25:13;10.40;99.90
40516;DHT22;26216;53.724;9.898;2022-11-23T13:27:54;10.40;99.90
40516;DHT22;26216;53.724;9.898;2022-11-23T13:30:33;10.40;99.90
40516;DHT22;26216;53.724;9.898;2022-11-23T13:33:23;10.40;99.90
40516;DHT22;26216;53.724;9.898;2022-11-23T13:35:55;10.40;99.90
40516;DHT22;26216;53.724;9.898;2022-11-23T13:38:27;10.40;99.90
40516;DHT22;26216;53.724;9.898;2022-11-23T13:40:53;10.40;99.90
40516;DHT22;26216;53.724;9.898;2022-11-23T13:43:31;10.40;99.90
40516;DHT22;26216;53.724;9.898;2022-11-23T13:46:26;10.40;99.90
40516;DHT22;26216;53.724;9.898;2022-11-23T13:48:57;10.50;99.90
40516;DHT22;26216;53.724;9.898;2022-11-23T13:51:30;10.40;99.90
40516;DHT22;26216;53.724;9.898;2022-11-23T13:54:05;10.40;99.90
40516;DHT22;26216;53.724;9.898;2022-11-23T13:56:43;10.50;99.90
40516;DHT22;26216;53.724;9.898;2022-11-23T14:01:59;10.40;99.90
40516;DHT22;26216;53.724;9.898;2022-11-23T14:04:36;10.40;99.90
40516;DHT22;26216;53.724;9.898;2022-11-23T14:07:26;10.50;99.90
40516;DHT22;26216;53.724;9.898;2022-11-23T14:10:32;10.40;99.90
40516;DHT22;26216;53.724;9.898;2022-11-23T14:13:19;10.50;99.90
40516;DHT22;26216;53.724;9.898;2022-11-23T14:16:00;10.50;99.90
40516;DHT22;26216;53.724;9.898;2022-11-23T14:21:13;10.50;99.90
40516;DHT22;26216;53.724;9.898;2022-11-23T14:26:32;10.40;99.90
40516;DHT22;26216;53.724;9.898;2022-11-23T14:37:38;10.40;99.90
40516;DHT22;26216;53.724;9.898;2022-11-23T14:40:11;10.40;99.90
40516;DHT22;26216;53.724;9.898;2022-11-23T14:42:51;10.30;99.90
40516;DHT22;26216;53.724;9.898;2022-11-23T14:45:21;10.30;99.90
40516;DHT22;26216;53.724;9.898;2022-11-23T14:47:48;10.30;99.90
40516;DHT22;26216;53.724;9.898;2022-11-23T14:50:26;10.30;99.90
40516;DHT22;26216;53.724;9.898;2022-11-23T14:52:54;10.20;99.90
40516;DHT22;26216;53.724;9.898;2022-11-23T14:55:26;10.20;99.90
40516;DHT22;26216;53.724;9.898;2022-11-23T14:58:00;10.20;99.90
40516;DHT22;26216;53.724;9.898;2022-11-23T15:02:55;10.20;99.90
40516;DHT22;26216;53.724;9.898;2022-11-23T15:05:28;10.20;99.90
40516;DHT22;26216;53.724;9.898;2022-11-23T15:10:42;10.00;99.90
40516;DHT22;26216;53.724;9.898;2022-11-23T15:13:24;10.00;99.90
40516;DHT22;26216;53.724;9.898;2022-11-23T15:15:53;9.90;99.90
40516;DHT22;26216;53.724;9.898;2022-11-23T15:18:35;9.90;99.90
40516;DHT22;26216;53.724;9.898;2022-11-23T15:21:17;9.80;99.90
40516;DHT22;26216;53.724;9.898;2022-11-23T15:23:50;9.70;99.90
40516;DHT22;26216;53.724;9.898;2022-11-23T15:26:26;9.70;99.90
40516;DHT22;26216;53.724;9.898;2022-11-23T15:28:54;9.60;99.90
40516;DHT22;26216;53.724;9.898;2022-11-23T15:31:33;9.50;99.90
40516;DHT22;26216;53.724;9.898;2022-11-23T15:34:05;9.50;99.90
40516;DHT22;26216;53.724;9.898;2022-11-23T15:36:37;9.40;99.90
40516;DHT22;26216;53.724;9.898;2022-11-23T15:39:04;9.30;99.90
40516;DHT22;26216;53.724;9.898;2022-11-23T15:41:37;9.30;99.90
40516;DHT22;26216;53.724;9.898;2022-11-23T15:44:24;9.20;99.90
40516;DHT22;26216;53.724;9.898;2022-11-23T15:46:58;9.20;99.90
40516;DHT22;26216;53.724;9.898;2022-11-23T15:49:24;9.10;99.90
40516;DHT22;26216;53.724;9.898;2022-11-23T15:51:51;9.00;99.90
40516;DHT22;26216;53.724;9.898;2022-11-23T15:54:27;9.00;99.90
40516;DHT22;26216;53.724;9.898;2022-11-23T15:56:55;8.90;99.90
40516;DHT22;26216;53.724;9.898;2022-11-23T15:59:30;8.90;99.90
40516;DHT22;26216;53.724;9.898;2022-11-23T16:01:58;8.80;99.90
40516;DHT22;26216;53.724;9.898;2022-11-23T16:04:27;8.80;99.90
40516;DHT22;26216;53.724;9.898;2022-11-23T16:06:53;8.70;99.90
40516;DHT22;26216;53.724;9.898;2022-11-23T16:09:38;8.70;99.90
40516;DHT22;26216;53.724;9.898;2022-11-23T16:12:25;8.60;99.90
40516;DHT22;26216;53.724;9.898;2022-11-23T16:14:54;8.50;99.90
40516;DHT22;26216;53.724;9.898;2022-11-23T16:17:27;8.50;99.90
40516;DHT22;26216;53.724;9.898;2022-11-23T16:19:55;8.50;99.90
40516;DHT22;26216;53.724;9.898;2022-11-23T16:22:31;8.40;99.90
40516;DHT22;26216;53.724;9.898;2022-11-23T16:25:37;8.30;99.90
40516;DHT22;26216;53.724;9.898;2022-11-23T16:28:05;8.30;99.90
40516;DHT22;26216;53.724;9.898;2022-11-23T16:30:43;8.20;99.90
40516;DHT22;26216;53.724;9.898;2022-11-23T16:33:16;8.20;99.90
40516;DHT22;26216;53.724;9.898;2022-11-23T16:35:42;8.10;99.90
40516;DHT22;26216;53.724;9.898;2022-11-23T16:38:08;8.10;99.90
40516;DHT22;26216;53.724;9.898;2022-11-23T16:40:34;8.00;99.90
40516;DHT22;26216;53.724;9.898;2022-11-23T16:43:00;8.00;99.90
40516;DHT22;26216;53.724;9.898;2022-11-23T16:45:28;7.90;99.90
40516;DHT22;26216;53.724;9.898;2022-11-23T16:48:00;7.90;99.90
40516;DHT22;26216;53.724;9.898;2022-11-23T16:50:31;7.90;99.90
40516;DHT22;26216;53.724;9.898;2022-11-23T16:53:13;7.80;99.90
40516;DHT22;26216;53.724;9.898;2022-11-23T16:55:40;7.80;99.90
40516;DHT22;26216;53.724;9.898;2022-11-23T16:58:10;7.80;99.90
40516;DHT22;26216;53.724;9.898;2022-11-23T17:00:39;7.70;99.90
40516;DHT22;26216;53.724;9.898;2022-11-23T17:03:05;7.70;99.90
40516;DHT22;26216;53.724;9.898;2022-11-23T17:05:31;7.70;99.90
40516;DHT22;26216;53.724;9.898;2022-11-23T17:07:56;7.70;99.90
40516;DHT22;26216;53.724;9.898;2022-11-23T17:10:22;7.60;99.90
40516;DHT22;26216;53.724;9.898;2022-11-23T17:12:51;7.60;99.90
40516;DHT22;26216;53.724;9.898;2022-11-23T17:15:20;7.60;99.90
40516;DHT22;26216;53.724;9.898;2022-11-23T17:17:47;7.50;99.90
40516;DHT22;26216;53.724;9.898;2022-11-23T17:20:15;7.50;99.90
40516;DHT22;26216;53.724;9.898;2022-11-23T17:22:43;7.50;99.90
40516;DHT22;26216;53.724;9.898;2022-11-23T17:25:10;7.50;99.90
40516;DHT22;26216;53.724;9.898;2022-11-23T17:27:39;7.50;99.90
40516;DHT22;26216;53.724;9.898;2022-11-23T17:30:12;7.40;99.90
40516;DHT22;26216;53.724;9.898;2022-11-23T17:32:39;7.40;99.90
40516;DHT22;26216;53.724;9.898;2022-11-23T17:35:05;7.30;99.90
40516;DHT22;26216;53.724;9.898;2022-11-23T17:37:31;7.30;99.90
40516;DHT22;26216;53.724;9.898;2022-11-23T17:39:57;7.30;99.90
40516;DHT22;26216;53.724;9.898;2022-11-23T17:42:23;7.30;99.90
40516;DHT22;26216;53.724;9.898;2022-11-23T17:44:49;7.20;99.90
40516;DHT22;26216;53.724;9.898;2022-11-23T17:47:22;7.20;99.90
40516;DHT22;26216;53.724;9.898;2022-11-23T17:49:49;7.20;99.90
40516;DHT22;26216;53.724;9.898;2022-11-23T17:52:15;7.20;99.90
40516;DHT22;26216;53.724;9.898;2022-11-23T17:54:42;7.20;99.90
40516;DHT22;26216;53.724;9.898;2022-11-23T17:57:15;7.10;99.90
40516;DHT22;26216;53.724;9.898;2022-11-23T17:59:42;7.10;99.90